createdAt,value
2023-03-30T09:26:49.072Z,144347.00
2023-03-30T09:31:56.535Z,144405.56
2023-03-30T09:37:04.894Z,144459.13
2023-03-30T09:42:19.867Z,144505.28
2023-03-30T09:47:26.271Z,144542.66
2023-03-30T09:52:32.168Z,144691.00
2023-03-30T09:57:39.026Z,144664.81
2023-03-30T10:02:55.979Z,144752.16
2023-03-30T10:08:01.335Z,144807.00
2023-03-30T10:13:18.265Z,144822.00
2023-03-30T10:18:27.486Z,144820.75
2023-03-30T10:23:33.326Z,144804.50
2023-03-30T10:28:38.392Z,144770.84
2023-03-30T10:33:43.294Z,144673.56
2023-03-30T10:38:47.461Z,144560.13
2023-03-30T10:43:53.107Z,144523.94
2023-03-30T10:49:07.252Z,144583.81
2023-03-30T10:54:17.132Z,144627.41
2023-03-30T10:59:40.778Z,144652.38
2023-03-30T11:04:47.185Z,144624.94
2023-03-30T11:09:54.688Z,144642.41
2023-03-30T11:15:06.884Z,144618.72
2023-03-30T11:20:21.371Z,144610.00
2023-03-30T11:25:26.486Z,144627.41
2023-03-30T11:30:35.783Z,144642.41
2023-03-30T11:35:46.844Z,144637.38
2023-03-30T11:40:52.170Z,144580.03
2023-03-30T11:46:03.815Z,144560.13
2023-03-30T11:51:13.577Z,144479.09
2023-03-30T11:56:24.525Z,144510.25
2023-03-30T12:01:44.591Z,144500.28
2023-03-30T12:06:53.806Z,144465.34
2023-03-30T12:12:07.160Z,144532.69
2023-03-30T12:17:15.766Z,144558.88
2023-03-30T12:22:25.457Z,144568.81
2023-03-30T12:27:31.313Z,144577.53
2023-03-30T12:32:36.033Z,144657.34
2023-03-30T12:37:48.155Z,144651.13
2023-03-30T12:43:02.361Z,144664.81
2023-03-30T12:48:18.738Z,144627.41
2023-03-30T12:53:30.789Z,144672.34
2023-03-30T12:58:52.328Z,144841.97
2023-03-30T13:03:56.523Z,144899.38
2023-03-30T13:09:25.375Z,144916.81
2023-03-30T13:14:44.947Z,144841.97
2023-03-30T13:20:05.900Z,144905.59
2023-03-30T13:25:26.989Z,144975.47
2023-03-30T13:30:37.940Z,144925.59
2023-03-30T13:35:52.514Z,144764.63
2023-03-30T13:41:05.000Z,144632.41
2023-03-30T13:46:18.278Z,144324.56
2023-03-30T13:51:24.328Z,143828.03
2023-03-30T13:56:32.360Z,143504.88
2023-03-30T14:01:39.846Z,143080.44
2023-03-30T14:06:45.670Z,142983.72
2023-03-30T14:11:50.337Z,142978.78
2023-03-30T14:16:56.844Z,142986.22
2023-03-30T14:22:01.686Z,142999.88
2023-03-30T14:27:06.736Z,142998.63
2023-03-30T14:32:15.635Z,142987.44
2023-03-30T14:37:21.462Z,142987.44
2023-03-30T14:42:27.434Z,143008.53
2023-03-30T14:47:33.417Z,143009.78
2023-03-30T14:52:39.791Z,143014.72
2023-03-30T14:57:44.649Z,143007.28
2023-03-30T15:02:53.529Z,142988.69
2023-03-30T15:07:57.315Z,142976.31
2023-03-30T15:13:01.273Z,142966.34
2023-03-30T15:18:06.628Z,142977.53
2023-03-30T15:23:13.124Z,143015.97
2023-03-30T15:28:19.105Z,143033.34
2023-03-30T15:33:26.117Z,143039.53
2023-03-30T15:38:31.089Z,143054.44
2023-03-30T15:43:38.464Z,143032.09
2023-03-30T15:48:45.734Z,143059.38
2023-03-30T15:53:51.724Z,143090.38
2023-03-30T15:58:59.725Z,143102.75
2023-03-30T16:04:06.689Z,143090.38
2023-03-30T16:09:11.555Z,143118.91
2023-03-30T16:14:16.834Z,143126.34
2023-03-30T16:19:22.781Z,143094.09
2023-03-30T16:24:26.320Z,143092.84
2023-03-30T16:29:31.889Z,143092.84
2023-03-30T16:34:55.530Z,143164.78
2023-03-30T16:40:02.292Z,143202.03
2023-03-30T16:45:10.331Z,143219.38
2023-03-30T16:50:20.571Z,143189.59
2023-03-30T16:55:26.378Z,143195.84
2023-03-30T17:00:34.912Z,143189.59
2023-03-30T17:05:48.284Z,143195.84
2023-03-30T17:10:54.895Z,143173.50
2023-03-30T17:16:01.438Z,143180.94
2023-03-30T17:21:09.350Z,143166.00
2023-03-30T17:26:13.367Z,143105.25
2023-03-30T17:31:18.038Z,143043.25
2023-03-30T17:36:24.983Z,142987.44
2023-03-30T17:41:28.853Z,142937.84
2023-03-30T17:46:33.564Z,142878.38
2023-03-30T18:19:48.549Z,142656.63
2023-03-30T18:24:52.066Z,142641.78
2023-03-30T18:29:55.983Z,142614.53
2023-03-30T18:35:03.939Z,142604.66
2023-03-30T18:40:17.665Z,142592.25
2023-03-30T18:45:22.719Z,142568.72
2023-03-30T18:50:33.193Z,142558.84
2023-03-30T18:55:38.209Z,142583.59
2023-03-30T19:00:49.394Z,142605.91
2023-03-30T19:06:09.230Z,142638.06
2023-03-30T19:11:18.110Z,142703.69
2023-03-30T19:16:23.121Z,142742.06
2023-03-30T19:21:33.278Z,142592.25
2023-03-30T19:26:41.774Z,142518.06
2023-03-30T19:31:49.106Z,142530.41
2023-03-30T19:36:55.861Z,142525.47
2023-03-30T19:42:02.021Z,142503.19
2023-03-30T19:47:15.640Z,142501.94
2023-03-30T19:52:31.633Z,142492.06
2023-03-30T19:57:36.459Z,142456.16
2023-03-30T20:02:41.418Z,142451.22
2023-03-30T20:07:47.444Z,142461.09
2023-03-30T20:12:55.336Z,142459.84
2023-03-30T20:18:00.211Z,142409.16
2023-03-30T20:23:07.008Z,142343.56
2023-03-30T20:28:11.416Z,142296.63
2023-03-30T20:33:20.892Z,142278.06
2023-03-30T20:38:27.746Z,142301.56
2023-03-30T20:43:33.771Z,142304.03
2023-03-30T20:48:39.913Z,142299.09
2023-03-30T20:53:48.973Z,142280.53
2023-03-30T20:58:52.487Z,142229.81
2023-03-30T21:03:59.310Z,142201.38
2023-03-30T21:09:08.492Z,142203.84
2023-03-30T21:14:13.188Z,142221.19
2023-03-30T21:19:18.059Z,142229.81
